Time;durP1;ratioP1;P1;durP2;ratioP2;P2;SDS_P1;SDS_P2;PMS_P1;PMS_P2;Temp;Humidity;BMP_temperature;BMP_pressure;BME280_temperature;BME280_humidity;BME280_pressure;Samples;Min_cycle;Max_cycle;Signal;HPM_P1;HPM_P2
2022/05/07 00:01:05;;;;;;;33.85;26.73;;;;;;;10.05;100.00;163190.97;4989362;28;20049;-55
2022/05/07 00:03:30;;;;;;;33.92;29.33;;;;;;;9.97;100.00;163170.69;4991215;28;20027;-55
2022/05/07 00:05:56;;;;;;;33.72;28.02;;;;;;;9.88;100.00;163147.78;4973317;28;20058;-55
2022/05/07 00:08:21;;;;;;;37.50;30.83;;;;;;;9.84;100.00;163138.34;4972373;28;20019;-55
2022/05/07 00:10:47;;;;;;;34.15;28.05;;;;;;;9.80;100.00;163127.50;4970382;28;20093;-55
2022/05/07 00:13:13;;;;;;;36.85;27.77;;;;;;;9.78;100.00;163122.16;4972124;28;20502;-56
2022/05/07 00:15:39;;;;;;;41.78;29.60;;;;;;;9.72;100.00;163105.91;4983709;28;20035;-56
2022/05/07 00:18:06;;;;;;;34.30;28.15;;;;;;;9.65;100.00;163087.03;4991424;28;20022;-56
2022/05/07 00:20:33;;;;;;;38.17;31.45;;;;;;;9.63;100.00;163081.69;4989602;28;20417;-56
2022/05/07 00:22:59;;;;;;;36.08;30.42;;;;;;;9.62;100.00;163080.31;4990862;28;20494;-56
2022/05/07 00:25:25;;;;;;;33.50;29.23;;;;;;;9.60;100.00;163074.94;4977419;28;20031;-56
2022/05/07 00:27:51;;;;;;;33.42;29.15;;;;;;;9.57;100.00;163065.50;4971519;28;20031;-56
2022/05/07 00:30:16;;;;;;;34.45;27.98;;;;;;;9.49;100.00;163046.56;4972823;28;20031;-56
2022/05/07 00:32:41;;;;;;;40.08;30.08;;;;;;;9.43;100.00;163030.38;4973818;28;20525;-56
2022/05/07 00:35:09;;;;;;;39.03;30.48;;;;;;;9.43;100.00;163030.38;4984661;28;20030;-56
2022/05/07 00:37:34;;;;;;;35.83;30.63;;;;;;;9.39;100.00;163019.63;4993070;28;20050;-56
2022/05/07 00:39:59;;;;;;;35.33;29.63;;;;;;;9.34;100.00;163006.16;4980536;28;20552;-56
2022/05/07 00:42:25;;;;;;;38.17;31.42;;;;;;;9.30;100.00;162995.34;4992128;28;20042;-56
2022/05/07 00:44:51;;;;;;;36.15;27.77;;;;;;;9.26;100.00;162984.56;4986847;28;20018;-56
2022/05/07 00:47:23;;;;;;;36.38;31.60;;;;;;;9.23;100.00;162976.44;4973833;28;20074;-56
2022/05/07 00:49:52;;;;;;;36.75;30.50;;;;;;;9.20;100.00;162971.03;4974634;28;20031;-56
2022/05/07 00:52:20;;;;;;;38.53;30.67;;;;;;;9.20;100.00;162971.03;4974578;28;20038;-56
2022/05/07 00:54:47;;;;;;;42.33;33.08;;;;;;;9.19;100.00;162968.38;4987265;28;20019;-56
2022/05/07 00:57:13;;;;;;;38.30;31.25;;;;;;;9.20;100.00;162971.03;4973328;28;20055;-56
2022/05/07 00:59:39;;;;;;;35.72;31.58;;;;;;;9.23;100.00;162976.44;4977177;28;20077;-56
2022/05/07 01:02:04;;;;;;;36.33;30.70;;;;;;;9.25;100.00;162981.84;4992432;28;20074;-56
2022/05/07 01:04:30;;;;;;;44.53;30.02;;;;;;;9.27;100.00;162988.59;4989178;28;20026;-56
2022/05/07 01:06:56;;;;;;;35.13;30.75;;;;;;;9.24;100.00;162979.16;4973537;28;20046;-56
2022/05/07 01:09:21;;;;;;;36.45;29.17;;;;;;;9.33;100.00;163003.44;4985946;28;20547;-56
2022/05/07 01:11:47;;;;;;;39.22;28.63;;;;;;;9.32;100.00;163002.06;4992181;28;20038;-56
2022/05/07 01:14:12;;;;;;;30.92;26.70;;;;;;;9.34;100.00;163006.16;4992123;28;20038;-56
2022/05/07 01:16:38;;;;;;;43.53;31.67;;;;;;;9.35;100.00;163008.81;4973089;28;20097;-56
2022/05/07 01:19:04;;;;;;;42.20;29.27;;;;;;;9.31;100.00;162998.03;4982442;28;20026;-56
2022/05/07 01:21:29;;;;;;;35.42;24.08;;;;;;;9.31;100.00;162998.03;4981891;28;20054;-56
2022/05/07 01:23:55;;;;;;;32.65;25.80;;;;;;;9.30;100.00;162995.34;4977196;28;20026;-56
2022/05/07 01:26:22;;;;;;;32.28;28.73;;;;;;;9.31;100.00;162998.03;4992281;28;20046;-56
2022/05/07 01:28:48;;;;;;;30.67;27.23;;;;;;;9.32;100.00;163000.75;4993582;28;20496;-57
2022/05/07 01:31:14;;;;;;;32.65;24.83;;;;;;;9.30;100.00;162995.34;4992416;28;20038;-56
2022/05/07 01:33:40;;;;;;;33.05;24.88;;;;;;;9.28;100.00;162989.91;4992333;28;20501;-56
2022/05/07 01:36:16;;;;;;;34.67;30.63;;;;;;;9.28;100.00;162989.91;4981869;28;20049;-56
2022/05/07 01:38:41;;;;;;;34.55;27.38;;;;;;;9.26;100.00;162984.56;4982344;28;20054;-56
2022/05/07 01:41:07;;;;;;;33.80;27.65;;;;;;;9.23;100.00;162976.44;4972407;28;20491;-56
2022/05/07 01:43:34;;;;;;;32.20;27.02;;;;;;;9.21;100.00;162973.75;4973251;28;20470;-56
2022/05/07 01:46:00;;;;;;;31.77;27.77;;;;;;;9.20;100.00;162971.03;4991579;28;20104;-55
2022/05/07 01:48:26;;;;;;;31.25;27.88;;;;;;;9.20;100.00;162971.03;4993217;28;20504;-55
2022/05/07 01:50:52;;;;;;;40.65;27.88;;;;;;;9.21;100.00;162973.75;4982449;28;20057;-55
2022/05/07 01:53:17;;;;;;;34.13;27.63;;;;;;;9.23;100.00;162976.44;4975127;28;20030;-55
2022/05/07 01:55:46;;;;;;;31.20;26.42;;;;;;;9.23;100.00;162976.44;4988548;28;20049;-55
2022/05/07 01:58:12;;;;;;;29.98;22.08;;;;;;;9.23;100.00;162976.44;4993424;28;20034;-55
2022/05/07 02:00:40;;;;;;;48.42;28.52;;;;;;;9.23;100.00;162976.44;4991884;28;20030;-55
2022/05/07 02:03:06;;;;;;;33.50;25.83;;;;;;;9.22;100.00;162975.13;4989236;28;20046;-55
2022/05/07 02:05:31;;;;;;;32.33;27.30;;;;;;;9.19;100.00;162968.38;4976337;28;20037;-55
2022/05/07 02:07:57;;;;;;;36.58;27.08;;;;;;;9.16;100.00;162960.28;4975671;28;20031;-55
2022/05/07 02:10:22;;;;;;;31.25;27.38;;;;;;;9.15;100.00;162957.56;4991647;28;20037;-55
2022/05/07 02:12:49;;;;;;;30.85;27.58;;;;;;;9.16;100.00;162958.91;4992561;28;20089;-55
2022/05/07 02:15:14;;;;;;;33.40;27.40;;;;;;;9.14;100.00;162954.88;4980480;28;20080;-56
2022/05/07 02:17:40;;;;;;;36.65;29.05;;;;;;;9.17;100.00;162962.97;4971780;28;20039;-55
2022/05/07 02:20:06;;;;;;;35.42;27.65;;;;;;;9.18;100.00;162965.69;4973840;28;20031;-55
2022/05/07 02:22:31;;;;;;;37.60;28.48;;;;;;;9.16;100.00;162960.28;4987983;28;20050;-55
2022/05/07 02:24:58;;;;;;;36.08;27.95;;;;;;;9.19;100.00;162967.00;4975632;28;20030;-55
2022/05/07 02:27:24;;;;;;;44.92;34.30;;;;;;;9.19;100.00;162968.38;4972088;28;20098;-55
2022/05/07 02:29:49;;;;;;;36.75;31.90;;;;;;;9.20;100.00;162971.03;4974945;28;20038;-55
2022/05/07 02:32:14;;;;;;;35.75;29.70;;;;;;;9.20;100.00;162971.03;4990628;28;20413;-56
2022/05/07 02:34:40;;;;;;;33.10;28.92;;;;;;;9.23;100.00;162976.44;4981165;28;20022;-56
2022/05/07 02:37:06;;;;;;;36.22;29.00;;;;;;;9.21;100.00;162973.75;4971631;28;20035;-56
2022/05/07 02:39:32;;;;;;;38.92;32.05;;;;;;;9.19;100.00;162968.38;4972577;28;20645;-56
2022/05/07 02:44:41;;;;;;;38.17;31.50;;;;;;;9.19;100.00;162968.38;4980741;28;20037;-56
2022/05/07 02:47:07;;;;;;;36.28;28.58;;;;;;;9.16;100.00;162960.28;4971031;28;20039;-56
2022/05/07 02:49:32;;;;;;;35.28;29.50;;;;;;;9.11;100.00;162946.81;4973000;28;20031;-56
2022/05/07 02:51:58;;;;;;;37.13;30.23;;;;;;;9.07;100.00;162936.00;4981785;28;20049;-56
2022/05/07 02:54:23;;;;;;;33.72;29.50;;;;;;;9.01;100.00;162919.81;4988055;28;20149;-56
2022/05/07 02:56:49;;;;;;;32.95;29.55;;;;;;;8.92;100.00;162895.53;4990121;28;20038;-56
2022/05/07 02:59:14;;;;;;;34.03;30.35;;;;;;;8.89;100.00;162888.81;4992167;28;20031;-56
2022/05/07 03:01:41;;;;;;;33.70;29.60;;;;;;;8.88;100.00;162886.09;4990130;28;20069;-56
2022/05/07 03:04:07;;;;;;;31.40;26.95;;;;;;;8.81;100.00;162867.22;4991462;28;20033;-56
2022/05/07 03:06:32;;;;;;;35.28;26.80;;;;;;;8.81;100.00;162867.22;4990153;28;20046;-56
2022/05/07 03:08:58;;;;;;;34.03;28.50;;;;;;;8.71;100.00;162841.63;4988412;28;20022;-56
2022/05/07 03:11:23;;;;;;;32.45;28.17;;;;;;;8.67;100.00;162830.84;4990679;28;20049;-56
2022/05/07 03:13:48;;;;;;;35.38;28.88;;;;;;;8.59;100.00;162809.28;4990968;28;20034;-56
2022/05/07 03:16:14;;;;;;;38.97;30.73;;;;;;;8.50;100.00;162787.72;4990274;28;20038;-56
2022/05/07 03:18:39;;;;;;;43.20;32.60;;;;;;;8.46;100.00;162775.50;4987351;28;20034;-56
2022/05/07 03:21:04;;;;;;;42.97;34.13;;;;;;;8.39;100.00;162759.34;4976465;28;20046;-55
2022/05/07 03:23:30;;;;;;;54.95;40.33;;;;;;;8.50;100.00;162787.72;4987194;28;20034;-56
2022/05/07 03:25:55;;;;;;;49.53;38.40;;;;;;;8.55;100.00;162799.84;4978838;28;20042;-55
2022/05/07 03:28:20;;;;;;;50.08;39.30;;;;;;;8.62;100.00;162817.34;4991317;28;20026;-56
2022/05/07 03:30:46;;;;;;;47.25;40.28;;;;;;;8.69;100.00;162837.59;4989846;28;20054;-55
2022/05/07 03:33:12;;;;;;;50.25;38.92;;;;;;;8.78;100.00;162860.50;4989676;28;20548;-56
2022/05/07 03:35:39;;;;;;;50.03;41.03;;;;;;;8.84;100.00;162876.66;4988056;28;20057;-56
2022/05/07 03:38:04;;;;;;;48.50;37.92;;;;;;;8.87;100.00;162884.78;4991263;28;20105;-56
2022/05/07 03:40:30;;;;;;;42.97;38.30;;;;;;;8.88;100.00;162886.09;4989307;28;20105;-56
2022/05/07 03:42:56;;;;;;;44.05;35.13;;;;;;;8.86;100.00;162880.75;4991149;28;20049;-56
2022/05/07 03:45:21;;;;;;;50.65;40.28;;;;;;;8.85;100.00;162879.38;4986296;28;20389;-55
2022/05/07 03:47:46;;;;;;;53.40;35.97;;;;;;;8.85;100.00;162879.38;4989261;28;20023;-56
2022/05/07 03:50:12;;;;;;;46.08;38.28;;;;;;;8.87;100.00;162884.78;4990175;28;20037;-56
2022/05/07 03:55:22;;;;;;;43.95;37.33;;;;;;;8.86;100.00;162882.06;4987549;28;20586;-56
2022/05/07 03:57:47;;;;;;;45.42;37.85;;;;;;;8.87;100.00;162884.78;4990318;28;20046;-56
2022/05/07 04:00:13;;;;;;;45.45;39.83;;;;;;;8.87;100.00;162884.78;4991027;28;20050;-56
2022/05/07 04:02:38;;;;;;;50.78;37.70;;;;;;;8.89;100.00;162890.19;5001695;28;20081;-56
2022/05/07 04:05:04;;;;;;;50.13;39.95;;;;;;;8.93;100.00;162899.63;4988835;28;20051;-56
2022/05/07 04:07:30;;;;;;;48.97;40.05;;;;;;;8.95;100.00;162904.97;4993152;28;20054;-56
2022/05/07 04:09:55;;;;;;;47.20;39.30;;;;;;;8.98;100.00;162911.72;4994623;28;20026;-56
2022/05/07 04:12:22;;;;;;;48.70;38.72;;;;;;;9.02;100.00;162922.53;4993532;28;20046;-57
2022/05/07 04:14:47;;;;;;;55.25;41.08;;;;;;;9.07;100.00;162934.66;4993183;28;20045;-54
2022/05/07 04:17:12;;;;;;;57.58;44.78;;;;;;;9.14;100.00;162954.88;4989143;28;20494;-54
2022/05/07 04:19:38;;;;;;;61.67;43.90;;;;;;;9.20;100.00;162971.03;4990812;28;20022;-54
2022/05/07 04:22:03;;;;;;;58.47;47.28;;;;;;;9.30;100.00;162995.34;4983165;28;20490;-53
2022/05/07 04:24:29;;;;;;;57.05;40.58;;;;;;;9.39;100.00;163018.25;4983230;28;20065;-54
2022/05/07 04:26:55;;;;;;;55.10;43.60;;;;;;;9.46;100.00;163037.13;4975149;28;20039;-54
2022/05/07 04:29:20;;;;;;;50.83;42.28;;;;;;;9.51;100.00;163051.97;4990963;28;20022;-54
2022/05/07 04:31:46;;;;;;;52.53;40.22;;;;;;;9.66;100.00;163089.75;4993151;28;20395;-54
2022/05/07 04:34:11;;;;;;;44.88;40.10;;;;;;;9.77;100.00;163118.06;4994102;28;20033;-54
2022/05/07 04:36:37;;;;;;;41.08;36.58;;;;;;;9.82;100.00;163132.94;4993297;28;20046;-53
2022/05/07 04:39:02;;;;;;;50.40;39.05;;;;;;;9.87;100.00;163145.06;4994454;28;20409;-54
2022/05/07 04:41:27;;;;;;;48.83;41.78;;;;;;;9.91;100.00;163154.50;4993115;28;20042;-54
2022/05/07 04:43:53;;;;;;;51.42;38.80;;;;;;;9.94;100.00;163162.63;4990433;28;20033;-53
2022/05/07 04:46:18;;;;;;;52.80;40.00;;;;;;;9.99;100.00;163176.09;4991258;28;20498;-54
2022/05/07 04:48:45;;;;;;;47.47;37.33;;;;;;;10.01;100.00;163181.53;4988938;28;20030;-52
2022/05/07 04:51:10;;;;;;;48.90;38.97;;;;;;;10.04;100.00;163188.25;4993087;28;20100;-54
2022/05/07 04:53:36;;;;;;;51.20;37.53;;;;;;;10.03;100.00;163185.56;4977215;28;20046;-54
2022/05/07 04:56:01;;;;;;;46.50;31.95;;;;;;;10.06;100.00;163193.63;4991949;28;20035;-54
2022/05/07 04:58:26;;;;;;;39.08;33.88;;;;;;;10.11;100.00;163208.47;4992594;28;20493;-54
2022/05/07 05:00:52;;;;;;;42.53;34.40;;;;;;;10.15;100.00;163219.28;4988661;28;20038;-54
2022/05/07 05:03:17;;;;;;;45.28;39.85;;;;;;;10.21;100.00;163232.78;4993094;28;20047;-54
2022/05/07 05:05:44;;;;;;;44.00;37.72;;;;;;;10.36;100.00;163271.91;4983307;28;20494;-54
2022/05/07 05:08:09;;;;;;;41.83;37.08;;;;;;;10.43;100.00;163292.22;4988689;28;20081;-54
2022/05/07 05:10:35;;;;;;;44.63;37.60;;;;;;;10.53;100.00;163316.53;4989169;28;20057;-53
2022/05/07 05:13:00;;;;;;;40.90;34.88;;;;;;;10.64;100.00;163346.19;4993741;28;20026;-54
2022/05/07 05:15:26;;;;;;;42.95;34.50;;;;;;;10.74;100.00;163373.22;4988507;28;20033;-54
2022/05/07 05:17:52;;;;;;;43.30;34.92;;;;;;;10.88;100.00;163408.28;4986909;28;20018;-54
2022/05/07 05:20:18;;;;;;;43.13;35.42;;;;;;;10.98;100.00;163435.31;4988949;28;20519;-53
2022/05/07 05:22:50;;;;;;;41.15;35.80;;;;;;;11.16;100.00;163481.19;4984891;28;20073;-54
2022/05/07 05:25:16;;;;;;;41.80;36.53;;;;;;;11.29;100.00;163516.28;4983330;28;20049;-54
2022/05/07 05:27:42;;;;;;;37.95;33.90;;;;;;;11.46;100.00;163559.50;4986165;28;20041;-54
2022/05/07 05:30:09;;;;;;;43.72;39.22;;;;;;;11.60;100.00;163597.31;4989884;28;20426;-54
2022/05/07 05:32:34;;;;;;;40.75;36.50;;;;;;;11.83;100.00;163658.16;4990268;28;20066;-54
2022/05/07 05:34:59;;;;;;;39.65;33.72;;;;;;;11.99;100.00;163700.06;4982433;28;20100;-54
2022/05/07 05:37:25;;;;;;;46.55;33.58;;;;;;;12.15;100.00;163740.59;4984897;28;20053;-54
2022/05/07 05:39:50;;;;;;;43.88;33.13;;;;;;;12.31;100.00;163783.84;4987729;28;20042;-54
2022/05/07 05:42:15;;;;;;;38.70;34.28;;;;;;;12.49;100.00;163829.75;4976179;28;20046;-54
2022/05/07 05:44:42;;;;;;;40.53;31.23;;;;;;;12.57;100.00;163851.38;4989398;28;20039;-54
2022/05/07 05:47:08;;;;;;;34.92;30.90;;;;;;;12.67;100.00;163878.44;4984228;28;20043;-54
2022/05/07 05:49:34;;;;;;;37.40;32.55;;;;;;;12.80;100.00;163910.84;4985452;28;20023;-54
2022/05/07 05:52:02;;;;;;;40.17;29.30;;;;;;;12.91;100.00;163940.63;4991097;28;20083;-54
2022/05/07 05:54:28;;;;;;;32.47;29.07;;;;;;;13.02;100.00;163970.31;4981154;28;20023;-53
2022/05/07 05:56:53;;;;;;;32.97;29.35;;;;;;;13.19;100.00;164013.59;4987534;28;20125;-54
2022/05/07 05:59:18;;;;;;;33.53;29.92;;;;;;;13.30;100.00;164043.31;4980441;28;20078;-54
2022/05/07 06:01:44;;;;;;;33.08;29.13;;;;;;;13.44;100.00;164078.56;4983682;28;20054;-54
2022/05/07 06:04:10;;;;;;;55.08;30.92;;;;;;;13.55;100.00;164108.28;4991598;28;20046;-54
2022/05/07 06:06:35;;;;;;;38.85;29.45;;;;;;;13.67;100.00;164139.41;4990072;28;20419;-53
2022/05/07 06:09:01;;;;;;;31.85;27.20;;;;;;;13.80;100.00;164173.22;4992537;28;20031;-54
2022/05/07 06:11:26;;;;;;;31.55;28.23;;;;;;;13.91;100.00;164202.94;4989018;28;20073;-54
2022/05/07 06:13:51;;;;;;;36.67;28.45;;;;;;;14.03;100.00;164234.06;4990725;28;20034;-54
2022/05/07 06:16:17;;;;;;;30.27;25.42;;;;;;;14.20;100.00;164277.34;4990494;28;20079;-54
2022/05/07 06:18:42;;;;;;;32.13;24.90;;;;;;;14.35;100.00;164317.94;4991088;28;20711;-54
2022/05/07 06:21:08;;;;;;;31.95;26.17;;;;;;;14.52;100.00;164361.25;4980393;28;20051;-54
2022/05/07 06:23:33;;;;;;;35.45;28.08;;;;;;;14.65;100.00;164395.03;4984096;28;20037;-54
2022/05/07 06:28:43;;;;;;;29.23;23.52;;;;;;;14.88;100.00;164457.34;4986398;28;20540;-54
2022/05/07 06:31:10;;;;;;;27.85;24.95;;;;;;;15.08;100.00;164508.75;4989261;28;20046;-54
2022/05/07 06:33:37;;;;;;;26.65;23.08;;;;;;;15.07;100.00;164506.09;4984355;28;20524;-54
2022/05/07 06:36:02;;;;;;;27.25;24.40;;;;;;;15.28;100.00;164560.22;4986640;28;20042;-54
2022/05/07 06:38:28;;;;;;;24.98;22.30;;;;;;;15.32;100.00;164571.03;4985048;28;20041;-54
2022/05/07 06:40:56;;;;;;;29.42;25.25;;;;;;;15.56;100.00;164634.69;4974930;28;20498;-54
2022/05/07 06:43:22;;;;;;;36.88;24.95;;;;;;;15.76;100.00;164686.13;4979887;28;20038;-54
2022/05/07 06:45:48;;;;;;;32.85;24.20;;;;;;;16.07;100.00;164767.44;4971333;28;20518;-54
2022/05/07 06:48:13;;;;;;;30.10;24.02;;;;;;;16.45;100.00;164869.00;4972816;28;20210;-54
2022/05/07 06:50:39;;;;;;;30.35;25.45;;;;;;;17.03;100.00;165020.75;4970958;28;20031;-54
2022/05/07 06:53:04;;;;;;;26.45;21.88;;;;;;;17.73;100.00;165205.09;4980488;28;20026;-54
2022/05/07 06:55:32;;;;;;;25.92;21.30;;;;;;;18.34;100.00;165365.13;4988933;28;20041;-54
2022/05/07 06:57:58;;;;;;;26.42;22.70;;;;;;;18.45;100.00;165393.59;4991855;28;20029;-54
2022/05/07 07:00:24;;;;;;;26.35;21.83;;;;;;;18.53;100.00;165413.91;4985641;28;20475;-54
2022/05/07 07:02:50;;;;;;;26.02;23.25;;;;;;;18.44;100.00;165389.50;4979936;28;20018;-57
2022/05/07 07:05:15;;;;;;;27.98;24.63;;;;;;;18.45;100.00;165393.59;4991718;28;20026;-54
2022/05/07 07:07:42;;;;;;;31.10;24.73;;;;;;;18.42;100.00;165384.09;4988668;28;20049;-54
2022/05/07 07:10:08;;;;;;;31.63;24.50;;;;;;;18.52;100.00;165411.19;4991951;28;20049;-54
2022/05/07 07:12:39;;;;;;;40.92;26.15;;;;;;;18.74;100.00;165468.16;4983482;28;20046;-54
2022/05/07 07:15:05;;;;;;;28.40;25.13;;;;;;;19.09;100.00;165560.47;4980527;28;20054;-54
2022/05/07 07:17:32;;;;;;;26.45;23.65;;;;;;;19.29;100.00;165614.72;4970971;28;20042;-54
2022/05/07 07:19:57;;;;;;;29.07;23.80;;;;;;;19.44;100.00;165652.72;4987071;28;20033;-54
2022/05/07 07:22:23;;;;;;;29.38;24.02;;;;;;;19.39;100.00;165640.50;4983842;28;20042;-54
2022/05/07 07:24:48;;;;;;;29.77;24.02;;;;;;;19.07;100.00;165555.03;4990830;28;20049;-54
2022/05/07 07:27:13;;;;;;;29.55;24.67;;;;;;;18.97;100.00;165529.28;4990028;28;20042;-54
2022/05/07 07:29:39;;;;;;;38.35;24.13;;;;;;;18.47;100.00;165397.66;4991090;28;20030;-54
2022/05/07 07:32:05;;;;;;;31.48;24.95;;;;;;;18.55;100.00;165419.34;4987563;28;20053;-54
2022/05/07 07:34:30;;;;;;;28.35;23.50;;;;;;;18.38;100.00;165375.94;4991167;28;20597;-54
2022/05/07 07:36:55;;;;;;;32.97;27.58;;;;;;;17.62;100.00;165173.91;4978193;28;20556;-54
2022/05/07 07:39:21;;;;;;;30.88;26.95;;;;;;;17.61;100.00;165172.53;4971837;28;20035;-54
2022/05/07 07:41:46;;;;;;;33.63;27.27;;;;;;;17.81;100.00;165225.41;4971430;28;20043;-54
2022/05/07 07:44:12;;;;;;;40.08;29.75;;;;;;;17.76;100.00;165213.19;4989471;28;20117;-54
2022/05/07 07:49:21;;;;;;;37.63;28.88;;;;;;;17.72;100.00;165202.38;4984023;28;20409;-54
2022/05/07 07:51:47;;;;;;;34.72;29.50;;;;;;;17.70;100.00;165196.94;4987735;28;20042;-54
2022/05/07 07:54:14;;;;;;;40.67;31.65;;;;;;;17.95;100.00;165260.63;4976478;28;20081;-53
2022/05/07 07:56:39;;;;;;;39.10;28.40;;;;;;;17.99;100.00;165271.56;4983669;28;20137;-54
2022/05/07 07:59:05;;;;;;;40.72;29.55;;;;;;;18.11;100.00;165302.75;4990491;28;20399;-54
2022/05/07 08:01:31;;;;;;;38.50;33.00;;;;;;;18.48;100.00;165401.72;4989544;28;20043;-54
2022/05/07 08:03:56;;;;;;;30.65;27.23;;;;;;;18.95;100.00;165525.16;4988942;28;20054;-54
2022/05/07 08:06:22;;;;;;;34.22;28.70;;;;;;;18.95;100.00;165525.16;4989132;28;20047;-53
2022/05/07 08:11:40;;;;;;;31.75;27.52;;;;;;;19.53;100.00;165675.75;4985193;28;20401;-54
2022/05/07 08:14:06;;;;;;;36.40;29.23;;;;;;;19.90;100.00;165774.88;4981411;28;20434;-54
2022/05/07 08:16:32;;;;;;;33.15;27.83;;;;;;;19.61;100.00;165698.84;4989204;28;20066;-54
2022/05/07 08:18:57;;;;;;;30.00;26.05;;;;;;;19.34;100.00;165628.28;4982653;28;20113;-54
2022/05/07 08:21:23;;;;;;;40.58;32.22;;;;;;;20.12;100.00;165831.88;4989190;28;20457;-54
2022/05/07 08:23:48;;;;;;;29.10;26.08;;;;;;;20.27;100.00;165872.63;4971622;28;20071;-55
2022/05/07 08:26:14;;;;;;;29.75;25.65;;;;;;;20.05;100.00;165812.88;4970647;28;20039;-55
2022/05/07 08:28:40;;;;;;;25.63;19.83;;;;;;;19.71;100.00;165724.63;4986559;28;20035;-54
2022/05/07 08:31:05;;;;;;;25.70;20.52;;;;;;;19.59;100.00;165693.41;4989602;28;20061;-55
2022/05/07 08:33:31;;;;;;;24.50;20.80;;;;;;;20.63;100.00;165966.25;4975207;28;20081;-54
2022/05/07 08:35:57;;;;;;;35.17;22.38;;;;;;;20.16;100.00;165841.38;4970837;28;20043;-54
2022/05/07 08:38:22;;;;;;;23.45;19.33;;;;;;;19.91;100.00;165776.22;4971414;28;20458;-54
2022/05/07 08:40:48;;;;;;;26.42;20.65;;;;;;;20.43;100.00;165913.34;4972583;28;20457;-54
2022/05/07 08:43:16;;;;;;;18.10;16.13;;;;;;;20.53;100.00;165940.44;4988820;28;20406;-54
2022/05/07 08:45:42;;;;;;;;;;;;;;;21.05;100.00;166076.28;4974013;28;20050;-54
2022/05/07 08:48:08;;;;;;;19.42;14.45;;;;;;;21.42;100.00;166174.03;4971180;28;19914;-54
2022/05/07 08:50:34;;;;;;;20.85;13.27;;;;;;;21.47;100.00;166187.66;4969546;28;20056;-54
2022/05/07 08:52:59;;;;;;;19.67;13.73;;;;;;;21.44;100.00;166179.50;4988777;28;20030;-55
2022/05/07 08:55:25;;;;;;;20.67;13.52;;;;;;;21.42;100.00;166174.03;4991045;28;20041;-54
2022/05/07 08:57:52;;;;;;;23.67;12.52;;;;;;;21.27;100.00;166133.31;4993571;28;20019;-55
2022/05/07 09:00:20;;;;;;;16.90;13.05;;;;;;;20.79;100.00;166007.03;4975146;28;20446;-54
2022/05/07 09:02:48;;;;;;;16.27;13.20;;;;;;;20.17;100.00;165845.44;4983963;28;20053;-55
2022/05/07 09:05:18;;;;;;;17.73;15.73;;;;;;;21.26;100.00;166130.63;4991620;28;20050;-55
2022/05/07 09:07:53;;;;;;;23.65;15.95;;;;;;;21.46;100.00;166183.56;4992245;28;20042;-53
2022/05/07 09:10:19;;;;;;;22.55;13.63;;;;;;;21.08;100.00;166084.44;4985659;28;20061;-55
2022/05/07 09:12:45;;;;;;;16.25;14.13;;;;;;;21.51;100.00;166198.50;4983725;28;20510;-54
2022/05/07 09:15:10;;;;;;;24.65;13.65;;;;;;;21.55;100.00;166208.00;4991363;28;20069;-55
2022/05/07 09:17:36;;;;;;;19.15;13.88;;;;;;;21.75;100.00;166261.03;4987339;28;20035;-55
2022/05/07 09:20:12;;;;;;;21.45;14.77;;;;;;;21.96;100.00;166315.38;4992728;28;20133;-55
2022/05/07 09:22:55;;;;;;;17.08;13.88;;;;;;;21.92;100.00;166304.53;4991070;28;20406;-54
2022/05/07 09:25:27;;;;;;;16.52;12.75;;;;;;;22.13;100.00;166360.19;4974323;28;20089;-55
2022/05/07 09:27:56;;;;;;;18.55;13.68;;;;;;;22.00;100.00;166327.59;4988180;28;20046;-54
2022/05/07 09:30:26;;;;;;;25.08;13.35;;;;;;;21.97;100.00;166319.44;4992338;28;20109;-54
2022/05/07 09:32:53;;;;;;;20.27;13.85;;;;;;;21.47;100.00;166187.66;4979583;28;20035;-54
2022/05/07 09:38:09;;;;;;;15.65;12.98;;;;;;;21.98;100.00;166320.81;4990607;28;20413;-53
2022/05/07 09:40:41;;;;;;;18.67;12.65;;;;;;;22.05;100.00;166338.44;4991185;28;20022;-55
2022/05/07 09:43:12;;;;;;;19.55;13.55;;;;;;;22.22;100.00;166384.66;4982361;28;20126;-54
2022/05/07 09:45:38;;;;;;;23.83;12.50;;;;;;;22.42;100.00;166437.72;4973021;28;20482;-54
2022/05/07 09:48:05;;;;;;;16.67;12.70;;;;;;;22.24;100.00;166388.72;4992550;28;20060;-54
2022/05/07 09:58:33;;;;;;;15.60;11.57;;;;;;;22.92;99.51;166568.16;4973986;28;20041;-54
2022/05/07 10:01:25;;;;;;;18.63;13.00;;;;;;;22.50;100.00;166459.47;4972105;28;20039;-55
2022/05/07 10:04:08;;;;;;;17.17;11.35;;;;;;;22.45;100.00;166445.84;4972298;28;20549;-55
2022/05/07 10:06:48;;;;;;;14.45;11.13;;;;;;;22.63;100.00;166493.44;4972215;28;20038;-55
2022/05/07 10:09:43;;;;;;;16.50;11.63;;;;;;;22.62;100.00;166489.34;4977833;28;20030;-54
2022/05/07 10:12:16;;;;;;;16.23;12.80;;;;;;;22.74;100.00;166522.00;4984051;28;20531;-54
2022/05/07 10:14:42;;;;;;;15.95;12.25;;;;;;;22.96;100.00;166579.06;4973416;28;20030;-54
2022/05/07 10:17:12;;;;;;;16.95;11.43;;;;;;;22.92;100.00;166568.16;4972401;28;20043;-54
2022/05/07 10:19:41;;;;;;;19.70;12.68;;;;;;;23.04;99.64;166600.81;4972921;28;20541;-54
2022/05/07 10:22:22;;;;;;;20.92;12.25;;;;;;;22.97;96.05;166583.13;4978064;28;20050;-54
2022/05/07 10:25:08;;;;;;;20.13;12.15;;;;;;;22.63;98.52;166492.06;4992922;28;20058;-54
2022/05/07 10:27:39;;;;;;;17.52;13.02;;;;;;;22.64;98.56;166494.78;4990781;28;20042;-53
2022/05/07 10:30:07;;;;;;;20.35;13.80;;;;;;;23.39;100.00;166693.28;4988925;28;20032;-54
2022/05/07 10:32:46;;;;;;;17.05;11.65;;;;;;;23.82;98.68;166804.75;4983405;28;20386;-54
2022/05/07 10:35:11;;;;;;;14.25;10.90;;;;;;;23.79;92.40;166796.63;4974393;28;20050;-54
2022/05/07 10:37:43;;;;;;;14.15;10.95;;;;;;;24.03;93.08;166861.91;4971538;28;20035;-54
2022/05/07 10:40:12;;;;;;;11.75;10.50;;;;;;;24.29;91.59;166929.94;4977572;28;20081;-54
2022/05/07 10:42:39;;;;;;;19.65;12.23;;;;;;;24.50;93.20;166984.34;4989528;28;20473;-56
2022/05/07 10:45:20;;;;;;;15.73;11.95;;;;;;;23.76;93.77;166791.19;4989874;28;20033;-53
2022/05/07 10:47:55;;;;;;;18.13;10.52;;;;;;;23.96;90.08;166842.88;4981674;28;20120;-54
2022/05/07 10:50:22;;;;;;;17.02;9.68;;;;;;;24.10;90.06;166878.22;4985531;28;20165;-54
2022/05/07 10:52:55;;;;;;;19.70;12.75;;;;;;;24.29;89.25;166929.94;4988750;28;20042;-54
2022/05/07 10:55:25;;;;;;;16.88;12.23;;;;;;;24.55;89.56;166997.94;4973026;28;20034;-54
2022/05/07 10:57:51;;;;;;;18.98;10.45;;;;;;;24.21;90.77;166908.19;4971386;28;20587;-55
2022/05/07 11:00:21;;;;;;;18.65;11.32;;;;;;;24.36;94.54;166949.00;4992378;28;20228;-55
2022/05/07 11:02:51;;;;;;;19.13;10.60;;;;;;;24.22;95.51;166910.91;4987536;28;20046;-53
2022/05/07 11:05:17;;;;;;;15.27;10.50;;;;;;;24.76;88.65;167052.44;4991582;28;20020;-58
2022/05/07 11:07:43;;;;;;;14.40;10.63;;;;;;;24.96;89.84;167106.84;4984367;28;20042;-54
2022/05/07 11:10:10;;;;;;;20.08;11.07;;;;;;;25.28;85.24;167191.16;4991759;28;20030;-54
2022/05/07 11:12:36;;;;;;;17.73;12.17;;;;;;;25.01;83.09;167120.44;4975144;28;20082;-55
2022/05/07 11:15:08;;;;;;;18.58;11.90;;;;;;;25.15;81.95;167157.19;4988004;28;20058;-54
2022/05/07 11:17:36;;;;;;;16.30;11.45;;;;;;;25.16;82.89;167159.91;4989563;28;20049;-55
2022/05/07 11:20:04;;;;;;;16.35;12.60;;;;;;;25.32;80.72;167200.69;4991996;28;20057;-54
2022/05/07 11:22:32;;;;;;;;;;;;;;;25.33;81.91;167204.78;4990803;28;20082;-54
2022/05/07 11:25:02;;;;;;;13.27;9.88;;;;;;;-146.58;100.00;69501.63;4986812;28;19918;-55
2022/05/07 11:27:34;;;;;;;16.63;11.07;;;;;;;-146.58;100.00;69501.63;4988318;28;20049;-53
2022/05/07 11:30:00;;;;;;;10.60;8.73;;;;;;;-146.58;100.00;69501.63;4991204;28;20259;-53